createdAt,value
2018-05-26T00:01:05.839Z,93.10
2018-05-26T00:03:32.755Z,93.20
2018-05-26T00:05:59.632Z,93.40
2018-05-26T00:08:26.512Z,93.60
2018-05-26T00:10:53.396Z,93.70
2018-05-26T00:13:20.270Z,93.80
2018-05-26T00:15:47.222Z,93.60
2018-05-26T00:18:14.145Z,93.40
2018-05-26T00:20:41.096Z,93.70
2018-05-26T00:23:07.986Z,93.60
2018-05-26T00:25:34.890Z,93.60
2018-05-26T00:28:01.814Z,93.70
2018-05-26T00:30:28.717Z,93.80
2018-05-26T00:32:55.612Z,93.70
2018-05-26T00:35:22.482Z,93.90
2018-05-26T00:37:50.093Z,93.60
2018-05-26T00:40:16.972Z,93.60
2018-05-26T00:42:43.853Z,93.40
2018-05-26T00:45:10.721Z,93.30
2018-05-26T00:47:37.597Z,93.40
2018-05-26T00:50:04.481Z,93.40
2018-05-26T00:52:31.368Z,93.50
2018-05-26T00:54:58.252Z,93.30
2018-05-26T00:57:25.180Z,93.30
2018-05-26T00:59:52.806Z,93.60
2018-05-26T01:02:19.694Z,93.60
2018-05-26T01:04:46.618Z,93.60
2018-05-26T01:07:13.488Z,93.40
2018-05-26T01:09:41.124Z,93.40
2018-05-26T01:12:08.000Z,93.40
2018-05-26T01:14:34.881Z,93.20
2018-05-26T01:17:01.770Z,93.30
2018-05-26T01:19:28.999Z,93.30
2018-05-26T01:21:55.942Z,93.40
2018-05-26T01:24:22.833Z,93.20
2018-05-26T01:26:49.703Z,93.20
2018-05-26T01:29:16.577Z,93.30
2018-05-26T01:31:43.465Z,93.20
2018-05-26T01:34:10.342Z,93.40
2018-05-26T01:36:37.225Z,93.80
2018-05-26T01:39:04.225Z,93.80
2018-05-26T01:41:31.101Z,93.80
2018-05-26T01:43:57.996Z,93.80
2018-05-26T01:46:24.876Z,93.90
2018-05-26T01:48:51.761Z,93.90
2018-05-26T01:51:19.421Z,94.00
2018-05-26T01:53:46.316Z,94.00
2018-05-26T01:56:13.210Z,94.20
2018-05-26T01:58:40.843Z,94.00
2018-05-26T02:01:07.721Z,94.00
2018-05-26T02:03:35.346Z,94.00
2018-05-26T02:06:02.229Z,94.00
2018-05-26T02:08:29.113Z,94.00
2018-05-26T02:10:55.983Z,94.00
2018-05-26T02:13:22.917Z,94.20
2018-05-26T02:15:49.793Z,94.20
2018-05-26T02:18:17.412Z,94.20
2018-05-26T02:20:44.329Z,94.20
2018-05-26T02:23:11.249Z,94.10
2018-05-26T02:25:38.120Z,94.00
2018-05-26T02:28:05.005Z,94.30
2018-05-26T02:30:31.881Z,94.20
2018-05-26T02:32:58.759Z,94.20
2018-05-26T02:35:25.651Z,94.30
2018-05-26T02:37:52.529Z,93.90
2018-05-26T02:40:19.426Z,93.60
2018-05-26T02:42:46.305Z,93.80
2018-05-26T02:45:13.213Z,94.00
2018-05-26T02:47:40.091Z,94.20
2018-05-26T02:50:06.957Z,94.60
2018-05-26T02:52:33.824Z,94.60
2018-05-26T02:55:00.724Z,94.80
2018-05-26T02:57:27.595Z,95.00
2018-05-26T02:59:54.483Z,95.20
2018-05-26T03:02:22.094Z,95.10
2018-05-26T03:04:55.010Z,95.10
2018-05-26T03:07:27.788Z,94.80
2018-05-26T03:10:00.601Z,94.80
2018-05-26T03:12:34.064Z,94.80
2018-05-26T03:15:01.072Z,94.80
2018-05-26T03:17:34.885Z,94.90
2018-05-26T03:20:01.849Z,94.90
2018-05-26T03:22:28.777Z,95.20
2018-05-26T03:24:55.673Z,95.30
2018-05-26T03:27:23.293Z,95.30
2018-05-26T03:29:50.164Z,95.40
2018-05-26T03:32:17.046Z,95.70
2018-05-26T03:34:43.920Z,95.70
2018-05-26T03:37:10.805Z,95.70
2018-05-26T03:39:37.680Z,95.60
2018-05-26T03:42:04.584Z,95.70
2018-05-26T03:44:31.467Z,95.60
2018-05-26T03:46:58.340Z,95.70
2018-05-26T03:49:25.212Z,95.80
2018-05-26T03:51:52.090Z,95.80
2018-05-26T03:54:19.216Z,96.00
2018-05-26T03:56:57.990Z,95.90
2018-05-26T03:59:36.816Z,95.80
2018-05-26T04:02:03.821Z,95.80
2018-05-26T04:04:31.053Z,95.80
2018-05-26T04:06:57.923Z,96.00
2018-05-26T04:09:24.796Z,95.90
2018-05-26T04:11:52.606Z,95.70
2018-05-26T04:14:19.494Z,95.70
2018-05-26T04:16:46.372Z,95.70
2018-05-26T04:19:13.267Z,95.60
2018-05-26T04:21:40.132Z,95.80
2018-05-26T04:24:07.058Z,95.90
2018-05-26T04:26:33.962Z,96.00
2018-05-26T04:29:00.827Z,95.70
2018-05-26T04:31:27.733Z,96.00
2018-05-26T04:33:54.626Z,96.40
2018-05-26T04:36:21.520Z,96.60
2018-05-26T04:38:48.397Z,96.50
2018-05-26T04:41:16.053Z,96.60
2018-05-26T04:43:42.928Z,96.60
2018-05-26T04:46:09.811Z,96.60
2018-05-26T04:48:37.485Z,97.10
2018-05-26T04:51:04.364Z,97.10
2018-05-26T04:53:31.240Z,96.70
2018-05-26T04:55:58.117Z,96.90
2018-05-26T04:58:24.992Z,96.40
2018-05-26T05:00:51.868Z,96.40
2018-05-26T05:03:18.749Z,96.30
2018-05-26T05:05:45.675Z,96.50
2018-05-26T05:08:12.541Z,96.40
2018-05-26T05:10:39.476Z,96.50
2018-05-26T05:13:06.360Z,96.80
2018-05-26T05:15:33.244Z,97.00
2018-05-26T05:18:00.169Z,97.20
2018-05-26T05:20:27.165Z,97.30
2018-05-26T05:22:54.037Z,97.40
2018-05-26T05:25:21.049Z,97.80
2018-05-26T05:27:47.972Z,97.60
2018-05-26T05:30:14.863Z,97.50
2018-05-26T05:32:42.480Z,97.70
2018-05-26T05:35:09.394Z,97.70
2018-05-26T05:37:37.064Z,98.10
2018-05-26T05:40:03.952Z,98.10
2018-05-26T05:42:30.832Z,98.30
2018-05-26T05:44:57.699Z,98.40
2018-05-26T05:47:24.588Z,98.10
2018-05-26T05:49:52.200Z,98.20
2018-05-26T05:52:19.077Z,97.90
2018-05-26T05:54:45.952Z,98.30
2018-05-26T05:57:13.578Z,98.50
2018-05-26T05:59:40.503Z,98.50
2018-05-26T06:02:07.405Z,98.30
2018-05-26T06:04:34.281Z,98.20
2018-05-26T06:07:01.900Z,99.20
2018-05-26T06:09:28.788Z,99.20
2018-05-26T06:11:55.709Z,99.10
2018-05-26T06:14:22.596Z,99.10
2018-05-26T06:16:49.489Z,98.90
2018-05-26T06:19:16.412Z,99.10
2018-05-26T06:21:43.292Z,99.00
2018-05-26T06:24:10.162Z,98.70
2018-05-26T06:26:37.077Z,98.80
2018-05-26T06:29:03.972Z,98.60
2018-05-26T06:31:30.838Z,98.80
2018-05-26T06:33:58.440Z,99.10
2018-05-26T06:36:25.313Z,99.10
2018-05-26T06:38:52.186Z,99.30
2018-05-26T06:41:19.829Z,99.30
2018-05-26T06:43:46.721Z,99.40
2018-05-26T06:46:13.608Z,99.10
2018-05-26T06:48:40.517Z,99.40
2018-05-26T06:51:07.402Z,99.30
2018-05-26T06:53:35.021Z,99.50
2018-05-26T06:56:01.945Z,99.40
2018-05-26T06:58:28.852Z,99.20
2018-05-26T07:00:55.732Z,99.10
2018-05-26T07:03:22.616Z,99.00
2018-05-26T07:05:49.509Z,99.00
2018-05-26T07:08:16.409Z,99.30
2018-05-26T07:10:43.280Z,99.20
2018-05-26T07:13:10.160Z,99.40
2018-05-26T07:15:37.256Z,99.90
2018-05-26T07:18:04.129Z,99.80
2018-05-26T07:20:31.031Z,99.80
2018-05-26T07:22:57.944Z,99.50
2018-05-26T07:25:24.852Z,99.50
2018-05-26T07:27:51.822Z,99.60
2018-05-26T07:30:18.768Z,99.90
2018-05-26T07:32:46.091Z,99.90
2018-05-26T07:35:12.997Z,99.90
2018-05-26T07:37:39.885Z,99.90
2018-05-26T07:40:07.806Z,99.80
2018-05-26T07:42:34.713Z,99.80
2018-05-26T07:45:01.812Z,99.70
2018-05-26T07:47:28.740Z,98.90
2018-05-26T07:49:57.268Z,98.70
2018-05-26T07:52:24.408Z,98.30
2018-05-26T07:54:51.282Z,98.30
2018-05-26T07:57:18.232Z,98.20
2018-05-26T07:59:45.135Z,98.50
2018-05-26T08:02:11.996Z,98.20
2018-05-26T08:04:39.611Z,98.60
2018-05-26T08:07:06.474Z,98.60
2018-05-26T08:09:33.340Z,99.00
2018-05-26T08:12:01.001Z,98.40
2018-05-26T08:14:28.613Z,98.40
2018-05-26T08:16:55.620Z,98.40
2018-05-26T08:19:22.516Z,98.60
2018-05-26T08:21:50.157Z,97.40
2018-05-26T08:24:17.163Z,97.40
2018-05-26T08:26:44.037Z,96.50
2018-05-26T08:29:10.956Z,95.80
2018-05-26T08:31:38.723Z,95.50
2018-05-26T08:34:05.602Z,95.50
2018-05-26T08:36:32.468Z,94.70
2018-05-26T08:38:59.349Z,94.00
2018-05-26T08:41:27.520Z,93.20
2018-05-26T08:43:54.916Z,93.20
2018-05-26T08:46:22.901Z,92.10
2018-05-26T08:48:50.791Z,92.10
2018-05-26T08:51:18.855Z,91.00
2018-05-26T08:53:46.538Z,91.00
2018-05-26T08:56:14.847Z,90.80
2018-05-26T08:58:42.345Z,90.80
2018-05-26T09:01:09.514Z,90.30
2018-05-26T09:03:37.751Z,90.00
2018-05-26T09:06:05.081Z,90.20
2018-05-26T09:08:32.875Z,89.60
2018-05-26T09:11:01.359Z,90.20
2018-05-26T09:13:29.899Z,90.20
2018-05-26T09:15:57.245Z,90.80
2018-05-26T09:18:24.467Z,90.30
2018-05-26T09:20:52.580Z,89.70
2018-05-26T09:23:19.945Z,89.00
2018-05-26T09:25:51.575Z,88.00
2018-05-26T09:28:19.247Z,87.60
2018-05-26T09:30:46.510Z,86.00
2018-05-26T09:33:15.394Z,85.50
2018-05-26T09:35:42.453Z,84.50
2018-05-26T09:38:09.748Z,82.10
2018-05-26T09:40:36.807Z,81.20
2018-05-26T09:43:03.673Z,79.70
2018-05-26T09:45:30.544Z,78.30
2018-05-26T09:47:57.432Z,78.70
2018-05-26T09:50:24.292Z,77.80
2018-05-26T09:52:51.160Z,77.40
2018-05-26T09:55:18.391Z,78.00
2018-05-26T09:57:45.443Z,78.40
2018-05-26T10:00:13.357Z,78.40
2018-05-26T10:02:40.248Z,74.50
2018-05-26T10:05:07.844Z,70.90
2018-05-26T10:07:34.712Z,70.70
2018-05-26T10:10:01.640Z,66.90
2018-05-26T10:12:28.497Z,64.90
2018-05-26T10:14:55.390Z,65.40
2018-05-26T10:17:22.991Z,62.00
2018-05-26T10:19:50.218Z,61.50
2018-05-26T10:22:17.077Z,64.40
2018-05-26T10:24:44.008Z,66.90
2018-05-26T10:27:11.356Z,68.40
2018-05-26T10:29:38.345Z,68.20
2018-05-26T10:32:05.209Z,70.00
2018-05-26T10:34:32.088Z,71.00
2018-05-26T10:36:58.952Z,73.10
2018-05-26T10:39:25.826Z,68.80
2018-05-26T10:42:02.894Z,61.60
2018-05-26T10:44:43.988Z,61.80
2018-05-26T10:47:10.996Z,58.60
2018-05-26T10:49:37.976Z,58.00
2018-05-26T10:52:06.380Z,57.10
2018-05-26T10:54:33.343Z,56.80
2018-05-26T10:57:00.241Z,53.40
2018-05-26T10:59:27.148Z,53.40
2018-05-26T11:01:54.048Z,55.20
2018-05-26T11:04:20.984Z,53.50
2018-05-26T11:06:47.856Z,54.70
2018-05-26T11:09:15.607Z,57.00
2018-05-26T11:11:44.759Z,58.50
2018-05-26T11:14:11.649Z,58.50
2018-05-26T11:16:38.675Z,59.10
2018-05-26T11:19:05.567Z,58.70
2018-05-26T11:21:32.437Z,60.00
2018-05-26T11:24:02.150Z,55.90
2018-05-26T11:26:30.543Z,55.20
2018-05-26T11:28:57.464Z,55.20
2018-05-26T11:31:24.364Z,55.00
2018-05-26T11:33:54.273Z,55.30
2018-05-26T11:36:21.926Z,54.20
2018-05-26T11:38:48.789Z,54.20
2018-05-26T11:41:15.667Z,52.60
2018-05-26T11:43:43.311Z,53.70
2018-05-26T11:46:12.984Z,50.20
2018-05-26T11:48:39.864Z,51.40
2018-05-26T11:51:08.784Z,50.40
2018-05-26T11:53:37.249Z,52.20
2018-05-26T11:56:05.308Z,53.40
2018-05-26T11:58:33.029Z,53.80
2018-05-26T12:01:02.668Z,51.70
2018-05-26T12:03:35.020Z,50.60
2018-05-26T12:06:02.854Z,50.40
2018-05-26T12:08:32.161Z,50.40
2018-05-26T12:11:00.969Z,48.40
2018-05-26T12:13:27.877Z,50.10
2018-05-26T12:15:54.740Z,51.10
2018-05-26T12:18:31.374Z,50.10
2018-05-26T12:20:59.685Z,50.30
2018-05-26T12:23:37.669Z,48.00
2018-05-26T12:26:19.627Z,48.50
2018-05-26T12:28:47.668Z,50.10
2018-05-26T12:31:14.599Z,51.00
2018-05-26T12:33:41.460Z,52.20
2018-05-26T12:36:08.348Z,51.10
2018-05-26T12:38:40.048Z,51.60
2018-05-26T12:41:08.199Z,51.00
2018-05-26T12:43:35.076Z,51.60
2018-05-26T12:46:01.971Z,50.40
2018-05-26T12:48:28.911Z,51.80
2018-05-26T12:50:55.808Z,52.20
2018-05-26T12:53:42.510Z,54.20
2018-05-26T12:56:09.383Z,54.10
2018-05-26T12:58:37.082Z,54.00
2018-05-26T13:01:04.052Z,54.00
2018-05-26T13:03:30.938Z,54.00
2018-05-26T13:05:59.320Z,54.70
2018-05-26T13:08:27.542Z,54.90
2018-05-26T13:10:54.594Z,55.90
2018-05-26T13:13:27.695Z,55.80
2018-05-26T13:15:55.445Z,54.70
2018-05-26T13:18:22.377Z,54.60
2018-05-26T13:20:49.241Z,55.00
2018-05-26T13:23:16.140Z,56.40
2018-05-26T13:25:43.599Z,56.80
2018-05-26T13:28:12.390Z,55.90
2018-05-26T13:30:40.158Z,57.10
2018-05-26T13:33:08.057Z,56.40
2018-05-26T13:35:34.924Z,56.00
2018-05-26T13:38:04.415Z,56.20
2018-05-26T13:40:31.373Z,56.20
2018-05-26T13:42:58.972Z,59.00
2018-05-26T13:45:29.682Z,59.00
2018-05-26T13:47:57.428Z,59.80
2018-05-26T13:50:25.980Z,60.30
2018-05-26T13:52:53.621Z,60.20
2018-05-26T13:55:20.861Z,59.70
2018-05-26T13:57:47.700Z,59.60
2018-05-26T14:00:14.573Z,58.40
2018-05-26T14:02:42.004Z,59.10
2018-05-26T14:05:11.052Z,59.30
2018-05-26T14:07:45.990Z,58.50
2018-05-26T14:10:13.597Z,59.80
2018-05-26T14:12:48.213Z,59.60
2018-05-26T14:15:18.356Z,59.80
2018-05-26T14:17:47.938Z,61.10
2018-05-26T14:20:21.473Z,61.00
2018-05-26T14:22:52.264Z,61.00
2018-05-26T14:25:22.700Z,61.30
2018-05-26T14:27:51.128Z,60.80
2018-05-26T14:30:18.020Z,62.10
2018-05-26T14:32:46.134Z,62.10
2018-05-26T14:35:16.956Z,63.10
2018-05-26T14:37:43.818Z,63.10
2018-05-26T14:40:10.717Z,62.90
2018-05-26T14:42:37.658Z,61.70
2018-05-26T14:45:04.556Z,64.60
2018-05-26T14:47:31.424Z,63.70
2018-05-26T14:50:07.785Z,64.00
2018-05-26T14:52:35.829Z,64.50
2018-05-26T14:55:02.800Z,64.90
2018-05-26T15:00:28.795Z,65.10
2018-05-26T15:02:56.815Z,67.50
2018-05-26T15:05:23.676Z,67.70
2018-05-26T15:07:50.796Z,66.70
2018-05-26T15:10:17.669Z,66.60
2018-05-26T15:12:44.612Z,67.60
2018-05-26T15:15:12.242Z,68.80
2018-05-26T15:17:39.140Z,68.70
2018-05-26T15:20:07.281Z,69.00
2018-05-26T15:22:34.187Z,67.80
2018-05-26T15:25:01.064Z,68.40
2018-05-26T15:27:27.932Z,69.30
2018-05-26T15:29:54.810Z,69.40
2018-05-26T15:32:21.681Z,67.40
2018-05-26T15:34:48.563Z,67.30
2018-05-26T15:37:15.452Z,67.30
2018-05-26T15:39:42.373Z,69.00
2018-05-26T15:42:09.255Z,68.80
2018-05-26T15:44:36.124Z,70.00
2018-05-26T15:47:02.999Z,67.40
2018-05-26T15:49:29.903Z,67.10
2018-05-26T15:51:57.525Z,66.70
2018-05-26T15:54:24.420Z,66.70
2018-05-26T15:56:53.048Z,65.30
2018-05-26T15:59:23.576Z,64.80
2018-05-26T16:01:53.392Z,65.20
2018-05-26T16:04:20.361Z,65.50
2018-05-26T16:06:47.977Z,64.20
2018-05-26T16:09:14.853Z,64.20
2018-05-26T16:11:41.728Z,64.60
2018-05-26T16:14:08.676Z,64.50
2018-05-26T16:16:35.540Z,66.30
2018-05-26T16:19:02.570Z,65.60
2018-05-26T16:21:29.488Z,65.90
2018-05-26T16:23:56.445Z,64.50
2018-05-26T16:26:24.072Z,64.50
2018-05-26T16:28:50.993Z,64.50
2018-05-26T16:31:17.884Z,63.10
2018-05-26T16:33:45.504Z,63.50
2018-05-26T16:36:12.654Z,63.60
2018-05-26T16:38:39.520Z,64.50
2018-05-26T16:41:06.432Z,65.20
2018-05-26T16:43:33.318Z,63.90
2018-05-26T16:46:01.473Z,64.80
2018-05-26T16:48:28.324Z,64.90
2018-05-26T16:50:55.232Z,65.60
2018-05-26T16:53:22.557Z,65.30
2018-05-26T16:55:49.452Z,65.10
2018-05-26T16:58:16.378Z,65.50
2018-05-26T17:00:44.112Z,66.00
2018-05-26T17:03:11.004Z,64.70
2018-05-26T17:05:37.916Z,65.50
2018-05-26T17:08:04.782Z,65.60
2018-05-26T17:10:32.325Z,64.30
2018-05-26T17:12:59.215Z,64.20
2018-05-26T17:15:26.096Z,63.70
2018-05-26T17:17:54.025Z,63.60
2018-05-26T17:20:21.281Z,64.80
2018-05-26T17:22:48.204Z,65.20
2018-05-26T17:25:15.073Z,65.40
2018-05-26T17:27:41.945Z,64.60
2018-05-26T17:30:08.905Z,65.30
2018-05-26T17:32:35.774Z,66.10
2018-05-26T17:35:03.107Z,66.20
2018-05-26T17:37:30.083Z,67.90
2018-05-26T17:39:56.976Z,67.50
2018-05-26T17:42:23.892Z,67.00
2018-05-26T17:44:50.802Z,68.20
2018-05-26T17:47:17.714Z,69.00
2018-05-26T17:49:44.616Z,68.20
2018-05-26T17:52:11.498Z,67.90
2018-05-26T17:54:38.356Z,68.50
2018-05-26T17:57:05.252Z,68.00
2018-05-26T17:59:32.129Z,68.40
2018-05-26T18:01:59.056Z,68.30
2018-05-26T18:04:25.937Z,68.10
2018-05-26T18:06:52.820Z,68.60
2018-05-26T18:09:19.750Z,69.70
2018-05-26T18:11:46.628Z,69.00
2018-05-26T18:14:13.500Z,70.60
2018-05-26T18:16:40.392Z,70.80
2018-05-26T18:19:07.256Z,71.70
2018-05-26T18:21:34.952Z,72.60
2018-05-26T18:24:01.825Z,72.60
2018-05-26T18:26:28.716Z,73.10
2018-05-26T18:28:55.597Z,73.70
2018-05-26T18:31:25.113Z,74.40
2018-05-26T18:33:52.945Z,75.30
2018-05-26T18:36:19.837Z,75.50
2018-05-26T18:38:46.712Z,76.10
2018-05-26T18:41:14.506Z,76.50
2018-05-26T18:43:41.416Z,76.50
2018-05-26T18:46:08.357Z,77.40
2018-05-26T18:48:35.324Z,79.00
2018-05-26T18:51:02.296Z,79.60
2018-05-26T18:53:30.521Z,80.60
2018-05-26T18:55:59.031Z,81.30
2018-05-26T18:58:26.640Z,81.30
2018-05-26T19:00:53.681Z,81.00
2018-05-26T19:03:20.654Z,81.70
2018-05-26T19:05:49.317Z,82.90
2018-05-26T19:08:16.304Z,82.70
2018-05-26T19:10:43.233Z,83.10
2018-05-26T19:13:10.148Z,83.30
2018-05-26T19:15:37.082Z,83.80
2018-05-26T19:18:04.055Z,84.00
2018-05-26T19:20:31.848Z,85.10
2018-05-26T19:22:58.920Z,85.10
2018-05-26T19:25:25.925Z,85.30
2018-05-26T19:27:53.546Z,86.50
2018-05-26T19:30:20.446Z,86.50
2018-05-26T19:32:47.723Z,86.70
2018-05-26T19:35:14.742Z,87.20
2018-05-26T19:37:41.608Z,88.20
2018-05-26T19:40:08.564Z,88.60
2018-05-26T19:42:35.536Z,88.90
2018-05-26T19:45:02.502Z,89.80
2018-05-26T19:47:30.293Z,90.50
2018-05-26T19:49:57.301Z,90.60
2018-05-26T19:52:24.660Z,90.40
2018-05-26T19:54:51.649Z,90.50
2018-05-26T19:57:18.542Z,90.70
2018-05-26T19:59:45.427Z,90.70
2018-05-26T20:02:12.300Z,90.80
2018-05-26T20:04:39.225Z,91.00
2018-05-26T20:07:06.126Z,91.10
2018-05-26T20:09:33.105Z,91.10
2018-05-26T20:12:00.169Z,90.90
2018-05-26T20:14:27.105Z,90.90
2018-05-26T20:16:54.021Z,90.90
2018-05-26T20:19:21.705Z,91.20
2018-05-26T20:21:48.904Z,91.20
2018-05-26T20:24:15.843Z,91.20
2018-05-26T20:26:43.606Z,91.60
2018-05-26T20:29:10.531Z,91.40
2018-05-26T20:31:37.633Z,91.90
2018-05-26T20:34:04.536Z,92.00
2018-05-26T20:36:31.412Z,92.00
2018-05-26T20:38:58.284Z,92.10
2018-05-26T20:41:25.208Z,92.20
2018-05-26T20:43:53.233Z,92.30
2018-05-26T20:46:20.561Z,92.30
2018-05-26T20:48:47.497Z,92.00
2018-05-26T20:51:14.363Z,92.10
2018-05-26T20:53:41.279Z,92.40
2018-05-26T20:56:08.168Z,91.90
2018-05-26T20:58:35.040Z,91.80
2018-05-26T21:01:01.953Z,91.70
2018-05-26T21:03:29.035Z,91.90
2018-05-26T21:05:56.267Z,92.00
2018-05-26T21:08:23.899Z,92.00
2018-05-26T21:10:50.766Z,92.10
2018-05-26T21:13:17.661Z,92.10
2018-05-26T21:15:44.603Z,92.30
2018-05-26T21:18:11.601Z,92.30
2018-05-26T21:20:38.485Z,92.40
2018-05-26T21:23:05.349Z,92.30
2018-05-26T21:25:32.354Z,92.00
2018-05-26T21:27:59.888Z,91.50
2018-05-26T21:30:27.544Z,91.30
2018-05-26T21:32:54.408Z,91.40
2018-05-26T21:35:21.353Z,91.70
2018-05-26T21:37:48.268Z,91.80
2018-05-26T21:40:15.180Z,91.70
2018-05-26T21:42:42.349Z,91.60
2018-05-26T21:45:09.275Z,91.60
2018-05-26T21:47:36.244Z,91.60
2018-05-26T21:50:03.167Z,91.80
2018-05-26T21:52:30.105Z,91.60
2018-05-26T21:54:57.010Z,91.60
2018-05-26T21:57:23.884Z,91.60
2018-05-26T21:59:51.489Z,92.00
2018-05-26T22:02:18.370Z,92.00
2018-05-26T22:04:45.235Z,92.10
2018-05-26T22:07:12.113Z,92.20
2018-05-26T22:09:38.996Z,92.30
2018-05-26T22:12:12.427Z,92.20
2018-05-26T22:14:42.667Z,92.10
2018-05-26T22:17:16.468Z,92.00
2018-05-26T22:19:47.777Z,92.10
2018-05-26T22:22:20.284Z,92.20
2018-05-26T22:27:26.668Z,91.90
2018-05-26T22:29:58.434Z,92.00
2018-05-26T22:32:33.077Z,92.20
2018-05-26T22:35:02.923Z,92.40
2018-05-26T22:37:35.673Z,92.50
2018-05-26T22:40:06.115Z,92.50
2018-05-26T22:42:37.200Z,92.50
2018-05-26T22:45:12.453Z,92.40
2018-05-26T22:47:42.551Z,92.60
2018-05-26T22:50:11.468Z,92.50
2018-05-26T22:52:41.894Z,92.60
2018-05-26T22:57:45.546Z,92.10
2018-05-26T23:00:17.463Z,92.20
2018-05-26T23:02:50.892Z,92.60
2018-05-26T23:05:17.849Z,92.70
2018-05-26T23:07:44.841Z,92.50
2018-05-26T23:10:13.952Z,92.70
2018-05-26T23:12:40.910Z,92.80
2018-05-26T23:15:07.833Z,92.90
2018-05-26T23:17:35.388Z,93.00
2018-05-26T23:20:11.479Z,93.30
2018-05-26T23:22:38.446Z,93.20
2018-05-26T23:25:05.846Z,93.20
2018-05-26T23:27:32.757Z,93.30
2018-05-26T23:30:06.261Z,93.40
2018-05-26T23:32:36.035Z,93.50
2018-05-26T23:35:07.112Z,93.50
2018-05-26T23:37:34.007Z,93.50
2018-05-26T23:40:07.812Z,93.40
2018-05-26T23:42:39.695Z,93.70
2018-05-26T23:45:07.362Z,93.60
2018-05-26T23:47:35.366Z,93.60
2018-05-26T23:50:09.723Z,93.60
2018-05-26T23:52:44.324Z,93.70
2018-05-26T23:57:57.014Z,93.70
